createdAt,value
2023-01-11T00:00:46.761Z,5.55
2023-01-11T00:03:13.520Z,6.43
2023-01-11T00:05:41.202Z,6.85
2023-01-11T00:08:08.225Z,6.75
2023-01-11T00:10:34.753Z,6.75
2023-01-11T00:13:01.734Z,6.68
2023-01-11T00:15:28.292Z,6.93
2023-01-11T00:17:54.857Z,6.35
2023-01-11T00:20:21.586Z,7.35
2023-01-11T00:22:48.156Z,6.15
2023-01-11T00:25:14.709Z,6.45
2023-01-11T00:27:41.223Z,6.85
2023-01-11T00:30:08.433Z,7.72
2023-01-11T00:32:34.917Z,6.53
2023-01-11T00:35:01.411Z,7.18
2023-01-11T00:37:27.884Z,6.97
2023-01-11T00:39:54.369Z,7.63
2023-01-11T00:42:39.636Z,6.00
2023-01-11T00:45:25.269Z,6.30
2023-01-11T00:47:57.399Z,7.40
2023-01-11T00:50:24.843Z,6.32
2023-01-11T00:52:51.404Z,6.38
2023-01-11T00:55:17.909Z,7.90
2023-01-11T00:57:44.382Z,7.40
2023-01-11T01:00:11.535Z,7.57
2023-01-11T01:02:38.141Z,5.03
2023-01-11T01:05:04.946Z,6.97
2023-01-11T01:07:31.531Z,6.10
2023-01-11T01:09:58.080Z,6.25
2023-01-11T01:12:42.893Z,6.22
2023-01-11T01:15:09.820Z,5.60
2023-01-11T01:17:36.281Z,5.20
2023-01-11T01:20:02.781Z,5.93
2023-01-11T01:22:29.263Z,6.18
2023-01-11T01:24:55.732Z,6.75
2023-01-11T01:27:22.299Z,7.40
2023-01-11T01:29:48.794Z,7.45
2023-01-11T01:32:15.277Z,7.35
2023-01-11T01:34:41.735Z,6.38
2023-01-11T01:37:09.673Z,6.40
2023-01-11T01:39:36.154Z,7.18
2023-01-11T01:42:03.368Z,7.20
2023-01-11T01:44:53.649Z,7.43
2023-01-11T01:47:22.452Z,7.32
2023-01-11T01:49:49.066Z,8.25
2023-01-11T01:52:15.743Z,8.32
2023-01-11T01:54:44.840Z,8.00
2023-01-11T01:57:22.522Z,6.40
2023-01-11T01:59:51.878Z,8.02
2023-01-11T02:02:20.641Z,7.50
2023-01-11T02:04:48.292Z,8.68
2023-01-11T02:07:18.050Z,7.45
2023-01-11T02:09:50.281Z,6.55
2023-01-11T02:12:16.927Z,6.45
2023-01-11T02:14:44.477Z,9.27
2023-01-11T02:17:11.697Z,7.45
2023-01-11T02:20:12.588Z,8.52
2023-01-11T02:22:55.418Z,6.32
2023-01-11T02:25:44.075Z,9.40
2023-01-11T02:28:29.323Z,7.43
2023-01-11T02:31:16.953Z,6.00
2023-01-11T02:34:11.195Z,5.40
2023-01-11T02:37:16.138Z,8.38
2023-01-11T02:40:08.877Z,5.97
2023-01-11T02:43:01.004Z,6.93
2023-01-11T02:45:59.668Z,7.05
2023-01-11T02:48:55.423Z,7.53
2023-01-11T02:51:34.121Z,6.88
2023-01-11T02:54:06.934Z,6.65
2023-01-11T02:56:37.649Z,6.40
2023-01-11T02:59:05.515Z,6.95
2023-01-11T03:01:32.054Z,5.45
2023-01-11T03:03:58.722Z,6.57
2023-01-11T03:06:27.527Z,3.83
2023-01-11T03:09:20.104Z,4.85
2023-01-11T03:12:05.218Z,5.15
2023-01-11T03:14:50.128Z,4.95
2023-01-11T03:17:51.547Z,7.70
2023-01-11T03:20:29.269Z,4.75
2023-01-11T03:23:19.001Z,5.50
2023-01-11T03:26:03.417Z,6.63
2023-01-11T03:28:37.533Z,3.75
2023-01-11T03:31:16.967Z,4.03
2023-01-11T03:34:08.602Z,4.38
2023-01-11T03:36:49.656Z,4.60
2023-01-11T03:39:21.888Z,4.18
2023-01-11T03:41:49.082Z,4.78
2023-01-11T03:44:16.203Z,6.15
2023-01-11T03:46:47.195Z,4.43
2023-01-11T03:49:27.946Z,5.32
2023-01-11T03:51:56.902Z,3.67
2023-01-11T03:54:24.886Z,4.55
2023-01-11T03:56:56.710Z,3.83
2023-01-11T03:59:23.261Z,4.38
2023-01-11T04:01:53.249Z,2.78
2023-01-11T04:04:19.781Z,3.88
2023-01-11T04:06:46.564Z,3.03
2023-01-11T04:09:13.186Z,3.00
2023-01-11T04:11:39.699Z,2.78
2023-01-11T04:14:06.216Z,2.78
2023-01-11T04:16:32.820Z,1.95
2023-01-11T04:18:59.870Z,1.38
2023-01-11T04:21:26.390Z,2.08
2023-01-11T04:23:52.866Z,2.05
2023-01-11T04:26:19.606Z,2.28
2023-01-11T04:28:46.259Z,3.97
2023-01-11T04:31:12.847Z,1.58
2023-01-11T04:33:39.425Z,1.63
2023-01-11T04:36:10.434Z,1.55
2023-01-11T04:38:36.987Z,2.42
2023-01-11T04:41:23.527Z,2.25
2023-01-11T04:43:50.342Z,1.80
2023-01-11T04:46:16.914Z,4.28
2023-01-11T04:48:43.499Z,5.57
2023-01-11T04:51:10.067Z,4.63
2023-01-11T04:53:36.600Z,2.72
2023-01-11T04:56:04.825Z,5.90
2023-01-11T04:58:33.104Z,6.10
2023-01-11T05:00:59.659Z,5.32
2023-01-11T05:03:26.294Z,5.75
2023-01-11T05:05:57.474Z,8.55
2023-01-11T05:08:25.406Z,6.25
2023-01-11T05:10:56.255Z,6.43
2023-01-11T05:13:41.505Z,5.15
2023-01-11T05:16:12.030Z,11.77
2023-01-11T05:18:42.631Z,8.88
2023-01-11T05:21:10.456Z,12.27
2023-01-11T05:23:37.089Z,21.83
2023-01-11T05:26:28.123Z,14.23
2023-01-11T05:28:56.500Z,16.95
2023-01-11T05:31:23.540Z,18.45
2023-01-11T05:33:50.129Z,18.65
2023-01-11T05:36:21.975Z,25.52
2023-01-11T05:38:50.041Z,21.77
2023-01-11T05:41:17.796Z,20.63
2023-01-11T05:44:04.045Z,17.02
2023-01-11T05:46:30.956Z,18.10
2023-01-11T05:48:59.028Z,20.25
2023-01-11T05:51:26.471Z,21.88
2023-01-11T05:53:53.149Z,18.10
2023-01-11T05:56:20.021Z,26.25
2023-01-11T05:58:50.661Z,29.98
2023-01-11T06:01:18.747Z,24.45
2023-01-11T06:03:46.075Z,18.60
2023-01-11T06:06:13.352Z,31.85
2023-01-11T06:08:39.901Z,31.35
2023-01-11T06:11:06.570Z,32.45
2023-01-11T06:13:33.873Z,33.47
2023-01-11T06:16:01.457Z,20.33
2023-01-11T06:18:36.447Z,29.73
2023-01-11T06:21:04.037Z,31.75
2023-01-11T06:23:31.910Z,29.90
2023-01-11T06:26:02.690Z,26.05
2023-01-11T06:28:29.329Z,24.15
2023-01-11T06:30:57.195Z,27.30
2023-01-11T06:33:25.278Z,31.48
2023-01-11T06:35:52.527Z,24.42
2023-01-11T06:38:20.378Z,23.23
2023-01-11T06:40:58.861Z,23.25
2023-01-11T06:43:26.099Z,23.73
2023-01-11T06:45:52.842Z,26.83
2023-01-11T06:48:20.140Z,32.33
2023-01-11T06:50:51.215Z,27.70
2023-01-11T06:53:17.827Z,28.70
2023-01-11T06:55:44.625Z,25.15
2023-01-11T06:58:11.235Z,24.42
2023-01-11T07:00:38.187Z,32.42
2023-01-11T07:03:05.760Z,27.60
2023-01-11T07:05:34.098Z,27.10
2023-01-11T07:08:00.805Z,31.27
2023-01-11T07:10:27.742Z,30.60
2023-01-11T07:12:54.550Z,26.33
2023-01-11T07:15:21.349Z,25.77
2023-01-11T07:17:49.464Z,26.20
2023-01-11T07:20:16.265Z,28.70
2023-01-11T07:22:42.788Z,24.40
2023-01-11T07:25:09.514Z,39.25
2023-01-11T07:27:36.074Z,29.08
2023-01-11T07:30:03.163Z,27.33
2023-01-11T07:32:29.755Z,38.97
2023-01-11T07:34:56.291Z,25.75
2023-01-11T07:37:28.870Z,32.78
2023-01-11T07:39:56.229Z,28.65
2023-01-11T07:42:41.496Z,31.20
2023-01-11T07:45:08.452Z,20.67
2023-01-11T07:47:35.226Z,24.80
2023-01-11T07:50:01.902Z,32.35
2023-01-11T07:52:28.454Z,34.60
2023-01-11T07:54:55.131Z,26.08
2023-01-11T07:57:21.658Z,31.50
2023-01-11T07:59:48.175Z,23.15
2023-01-11T08:02:14.780Z,29.77
2023-01-11T08:04:41.331Z,21.98
2023-01-11T08:07:07.853Z,32.70
2023-01-11T08:09:34.400Z,28.35
2023-01-11T08:12:19.680Z,27.73
2023-01-11T08:14:46.269Z,22.52
2023-01-11T08:17:14.832Z,29.30
2023-01-11T08:19:41.680Z,22.75
2023-01-11T08:22:08.936Z,24.77
2023-01-11T08:24:35.653Z,16.88
2023-01-11T08:27:02.932Z,23.23
2023-01-11T08:29:29.815Z,20.88
2023-01-11T08:31:56.972Z,16.63
2023-01-11T08:34:23.562Z,14.50
2023-01-11T08:36:50.112Z,21.48
2023-01-11T08:39:16.653Z,19.38
2023-01-11T08:41:43.174Z,12.00
2023-01-11T08:44:11.851Z,19.25
2023-01-11T08:46:38.573Z,16.38
2023-01-11T08:49:11.102Z,11.00
2023-01-11T08:51:41.264Z,17.10
2023-01-11T08:54:11.968Z,19.73
2023-01-11T08:56:38.736Z,16.98
2023-01-11T08:59:06.125Z,17.55
2023-01-11T09:01:33.573Z,16.60
2023-01-11T09:04:00.276Z,14.20
2023-01-11T09:06:26.818Z,19.65
2023-01-11T09:08:53.438Z,28.35
2023-01-11T09:11:38.487Z,20.65
2023-01-11T09:14:05.090Z,20.98
2023-01-11T09:16:31.673Z,23.10
2023-01-11T09:18:58.253Z,25.48
2023-01-11T09:21:25.110Z,32.28
2023-01-11T09:23:51.670Z,19.60
2023-01-11T09:26:18.249Z,21.00
2023-01-11T09:28:44.824Z,16.63
2023-01-11T09:31:11.497Z,16.80
2023-01-11T09:33:41.267Z,23.48
2023-01-11T09:36:08.030Z,15.43
2023-01-11T09:38:34.975Z,15.10
2023-01-11T09:41:23.223Z,18.70
2023-01-11T09:44:16.301Z,28.58
2023-01-11T09:46:46.309Z,17.80
2023-01-11T09:49:19.035Z,18.65
2023-01-11T09:51:46.768Z,12.15
2023-01-11T09:54:25.016Z,23.55
2023-01-11T09:56:57.782Z,24.95
2023-01-11T09:59:48.486Z,17.23
2023-01-11T10:02:23.364Z,13.95
2023-01-11T10:05:23.503Z,14.35
2023-01-11T10:18:21.016Z,14.27
2023-01-11T10:18:39.147Z,17.50
2023-01-11T10:20:24.787Z,13.57
2023-01-11T10:22:57.506Z,17.42
2023-01-11T10:25:31.199Z,23.25
2023-01-11T10:30:43.884Z,13.00
2023-01-11T10:33:59.911Z,20.50
2023-01-11T10:37:29.268Z,16.75
2023-01-11T10:40:30.511Z,21.38
2023-01-11T10:43:04.736Z,16.42
2023-01-11T10:45:51.353Z,18.33
2023-01-11T10:48:29.627Z,17.98
2023-01-11T10:51:11.313Z,17.48
2023-01-11T10:53:55.104Z,14.98
2023-01-11T10:56:27.749Z,17.52
2023-01-11T10:59:46.716Z,15.15
2023-01-11T11:02:38.961Z,17.08
2023-01-11T11:05:16.113Z,23.83
2023-01-11T11:08:27.712Z,21.15
2023-01-11T11:11:08.544Z,9.27
2023-01-11T11:13:45.004Z,20.85
2023-01-11T11:16:23.405Z,16.33
2023-01-11T11:18:55.560Z,16.40
2023-01-11T11:21:25.734Z,16.67
2023-01-11T11:23:58.663Z,20.60
2023-01-11T11:26:31.214Z,19.25
2023-01-11T11:29:06.480Z,16.70
2023-01-11T11:31:35.785Z,16.45
2023-01-11T11:34:07.230Z,17.27
2023-01-11T11:36:45.019Z,15.27
2023-01-11T11:39:11.576Z,14.77
2023-01-11T11:41:54.071Z,20.92
2023-01-11T11:44:28.088Z,16.60
2023-01-11T11:47:01.734Z,18.25
2023-01-11T11:52:03.354Z,22.13
2023-01-11T11:54:36.453Z,24.27
2023-01-11T11:57:34.423Z,12.82
2023-01-11T12:00:23.530Z,16.50
2023-01-11T12:02:57.613Z,20.73
2023-01-11T12:05:24.324Z,17.05
2023-01-11T12:07:55.240Z,17.02
2023-01-11T12:10:25.658Z,20.50
2023-01-11T12:13:02.623Z,13.07
2023-01-11T12:15:30.965Z,13.75
2023-01-11T12:18:25.911Z,11.88
2023-01-11T12:20:53.040Z,19.27
2023-01-11T12:23:23.965Z,18.63
2023-01-11T12:26:31.294Z,16.08
2023-01-11T12:29:05.071Z,15.40
2023-01-11T12:31:47.683Z,22.05
2023-01-11T12:34:42.203Z,16.50
2023-01-11T12:37:23.323Z,19.40
2023-01-11T12:40:17.797Z,17.15
2023-01-11T12:42:56.861Z,20.35
2023-01-11T12:46:08.167Z,19.65
2023-01-11T12:49:05.216Z,21.02
2023-01-11T12:51:40.463Z,15.15
2023-01-11T12:54:18.369Z,17.52
2023-01-11T12:56:58.624Z,18.65
2023-01-11T12:59:54.839Z,13.70
2023-01-11T13:02:36.258Z,18.77
2023-01-11T13:05:24.957Z,17.30
2023-01-11T13:08:07.949Z,18.73
2023-01-11T13:10:59.237Z,16.23
2023-01-11T13:13:52.529Z,15.52
2023-01-11T13:16:34.279Z,18.70
2023-01-11T13:19:07.609Z,21.40
2023-01-11T13:21:43.259Z,23.25
2023-01-11T13:24:25.289Z,9.50
2023-01-11T13:26:54.245Z,17.83
2023-01-11T13:29:29.587Z,17.85
2023-01-11T13:31:59.009Z,18.05
2023-01-11T13:34:33.415Z,20.80
2023-01-11T13:37:03.400Z,19.88
2023-01-11T13:39:58.826Z,22.95
2023-01-11T13:42:29.899Z,25.70
2023-01-11T13:45:01.562Z,16.40
2023-01-11T13:47:37.289Z,17.52
2023-01-11T13:50:10.436Z,11.68
2023-01-11T13:52:46.600Z,20.00
2023-01-11T13:55:26.480Z,16.80
2023-01-11T13:58:17.781Z,20.60
2023-01-11T14:00:49.496Z,17.35
2023-01-11T14:03:39.971Z,19.95
2023-01-11T14:06:34.113Z,14.65
2023-01-11T14:09:11.401Z,11.52
2023-01-11T14:11:37.862Z,14.75
2023-01-11T14:14:18.959Z,8.48
2023-01-11T14:16:48.549Z,13.90
2023-01-11T14:19:22.510Z,18.45
2023-01-11T14:22:20.164Z,17.65
2023-01-11T14:24:55.929Z,16.08
2023-01-11T14:27:33.148Z,12.80
2023-01-11T14:30:17.666Z,18.20
2023-01-11T14:33:25.509Z,16.50
2023-01-11T14:36:29.561Z,20.13
2023-01-11T14:39:14.643Z,12.70
2023-01-11T14:42:22.058Z,20.88
2023-01-11T14:45:34.271Z,10.00
2023-01-11T14:48:09.376Z,3.70
2023-01-11T14:50:54.636Z,13.02
2023-01-11T14:53:29.575Z,7.45
2023-01-11T14:55:56.154Z,10.75
2023-01-11T14:58:30.677Z,13.18
2023-01-11T15:00:57.108Z,18.70
2023-01-11T15:03:23.581Z,6.60
2023-01-11T15:05:54.842Z,9.57
2023-01-11T15:08:27.034Z,10.15
2023-01-11T15:11:20.961Z,8.32
2023-01-11T15:13:52.175Z,9.70
2023-01-11T15:16:42.388Z,13.93
2023-01-11T15:19:12.817Z,9.27
2023-01-11T15:21:47.962Z,7.95
2023-01-11T15:24:25.371Z,8.52
2023-01-11T15:26:52.547Z,9.52
2023-01-11T15:29:30.819Z,11.27
2023-01-11T15:32:03.436Z,9.48
2023-01-11T15:34:32.771Z,9.98
2023-01-11T15:37:07.947Z,10.73
2023-01-11T15:39:45.656Z,8.98
2023-01-11T15:42:15.034Z,8.25
2023-01-11T15:45:24.166Z,9.30
2023-01-11T15:47:50.625Z,11.05
2023-01-11T15:50:32.360Z,16.35
2023-01-11T15:53:17.561Z,8.77
2023-01-11T15:56:09.294Z,9.27
2023-01-11T15:58:57.036Z,9.05
2023-01-11T16:01:28.580Z,12.43
2023-01-11T16:04:01.360Z,4.00
2023-01-11T16:06:33.041Z,10.00
2023-01-11T16:09:22.605Z,14.27
2023-01-11T16:11:58.168Z,14.57
2023-01-11T16:14:45.952Z,17.90
2023-01-11T16:17:14.188Z,17.02
2023-01-11T16:19:43.924Z,24.10
2023-01-11T16:22:16.138Z,21.05
2023-01-11T16:24:47.981Z,15.82
2023-01-11T16:27:22.990Z,18.50
2023-01-11T16:29:50.767Z,19.60
2023-01-11T16:32:32.391Z,21.65
2023-01-11T16:35:00.599Z,23.58
2023-01-11T16:37:38.512Z,26.25
2023-01-11T16:40:15.344Z,18.30
2023-01-11T16:43:02.911Z,22.27
2023-01-11T16:45:55.522Z,20.15
2023-01-11T16:48:26.832Z,23.35
2023-01-11T16:51:06.061Z,17.63
2023-01-11T16:53:37.045Z,24.08
2023-01-11T16:56:07.058Z,21.65
2023-01-11T16:58:35.920Z,23.73
2023-01-11T17:01:05.000Z,16.75
2023-01-11T17:03:53.089Z,20.25
2023-01-11T17:06:21.899Z,21.55
2023-01-11T17:08:52.680Z,16.70
2023-01-11T17:11:33.052Z,66.40
2023-01-11T17:14:24.027Z,21.17
2023-01-11T17:16:53.948Z,30.42
2023-01-11T17:19:23.812Z,16.83
2023-01-11T17:21:52.536Z,27.95
2023-01-11T17:24:24.716Z,21.00
2023-01-11T17:26:57.379Z,27.27
2023-01-11T17:29:33.885Z,42.47
2023-01-11T17:32:03.002Z,25.13
2023-01-11T17:34:34.864Z,22.83
2023-01-11T17:37:03.498Z,19.38
2023-01-11T17:39:32.681Z,30.27
2023-01-11T17:42:25.564Z,28.95
2023-01-11T17:45:11.759Z,25.88
2023-01-11T17:47:43.477Z,24.20
2023-01-11T17:50:21.989Z,19.20
2023-01-11T17:52:54.740Z,23.77
2023-01-11T17:55:25.330Z,23.63
2023-01-11T17:58:19.738Z,19.27
2023-01-11T18:01:09.645Z,21.00
2023-01-11T18:03:46.859Z,16.98
2023-01-11T18:06:22.642Z,20.27
2023-01-11T18:08:52.575Z,16.92
2023-01-11T18:11:39.890Z,22.02
2023-01-11T18:14:08.367Z,23.10
2023-01-11T18:16:36.831Z,15.57
2023-01-11T18:19:22.472Z,22.67
2023-01-11T18:21:53.615Z,24.77
2023-01-11T18:24:26.522Z,14.15
2023-01-11T18:27:15.390Z,19.25
2023-01-11T18:29:44.686Z,21.58
2023-01-11T18:32:12.875Z,23.98
2023-01-11T18:34:39.739Z,16.77
2023-01-11T18:37:08.885Z,15.25
2023-01-11T18:39:35.662Z,17.35
2023-01-11T18:42:09.864Z,14.70
2023-01-11T18:44:41.612Z,16.50
2023-01-11T18:47:34.668Z,19.88
2023-01-11T18:50:01.253Z,18.98
2023-01-11T18:52:27.960Z,28.65
2023-01-11T18:54:55.728Z,17.95
2023-01-11T18:57:25.442Z,17.38
2023-01-11T18:59:55.474Z,19.60
2023-01-11T19:02:23.217Z,14.57
2023-01-11T19:04:54.082Z,18.98
2023-01-11T19:07:21.194Z,18.70
2023-01-11T19:09:47.825Z,23.08
2023-01-11T19:12:14.775Z,14.63
2023-01-11T19:14:41.744Z,25.20
2023-01-11T19:17:09.670Z,19.15
2023-01-11T19:19:36.698Z,17.27
2023-01-11T19:22:04.362Z,24.63
2023-01-11T19:24:31.596Z,12.95
2023-01-11T19:26:58.595Z,12.60
2023-01-11T19:29:25.441Z,17.20
2023-01-11T19:31:52.775Z,24.35
2023-01-11T19:34:19.833Z,14.95
2023-01-11T19:36:46.489Z,15.02
2023-01-11T19:39:13.078Z,19.42
2023-01-11T19:41:54.814Z,16.48
2023-01-11T19:44:22.186Z,16.27
2023-01-11T19:46:56.733Z,17.33
2023-01-11T19:49:27.546Z,14.15
2023-01-11T19:51:54.577Z,17.67
2023-01-11T19:54:22.023Z,17.48
2023-01-11T19:56:49.423Z,19.25
2023-01-11T19:59:16.244Z,15.63
2023-01-11T20:01:43.356Z,16.17
2023-01-11T20:04:10.931Z,20.30
2023-01-11T20:06:42.796Z,11.52
2023-01-11T20:09:11.025Z,12.68
2023-01-11T20:11:37.569Z,11.93
2023-01-11T20:14:04.175Z,12.77
2023-01-11T20:16:30.823Z,15.82
2023-01-11T20:18:57.756Z,16.75
2023-01-11T20:21:26.835Z,16.90
2023-01-11T20:23:55.136Z,16.98
2023-01-11T20:26:21.725Z,16.08
2023-01-11T20:28:54.493Z,18.35
2023-01-11T20:31:21.521Z,16.33
2023-01-11T20:33:48.147Z,18.67
2023-01-11T20:36:16.673Z,19.65
2023-01-11T20:38:44.472Z,24.38
2023-01-11T20:41:37.747Z,16.27
2023-01-11T20:44:05.683Z,16.50
2023-01-11T20:46:33.938Z,19.10
2023-01-11T20:49:00.909Z,16.13
2023-01-11T20:51:27.453Z,17.02
2023-01-11T20:53:54.010Z,14.30
2023-01-11T20:56:20.563Z,19.88
2023-01-11T20:58:48.316Z,19.00
2023-01-11T21:01:16.690Z,16.02
2023-01-11T21:03:43.268Z,18.05
2023-01-11T21:06:09.981Z,15.52
2023-01-11T21:08:37.076Z,17.08
2023-01-11T21:11:08.768Z,24.42
2023-01-11T21:13:35.629Z,16.85
2023-01-11T21:16:07.596Z,17.90
2023-01-11T21:18:34.526Z,15.75
2023-01-11T21:21:01.100Z,18.08
2023-01-11T21:23:27.647Z,15.48
2023-01-11T21:25:54.171Z,20.35
2023-01-11T21:28:20.718Z,14.95
2023-01-11T21:30:47.309Z,26.42
2023-01-11T21:33:13.886Z,19.67
2023-01-11T21:35:40.444Z,17.27
2023-01-11T21:38:06.942Z,16.48
2023-01-11T21:40:34.121Z,11.10
2023-01-11T21:43:00.644Z,10.57
2023-01-11T21:45:27.243Z,13.07
2023-01-11T21:47:53.868Z,12.93
2023-01-11T21:50:20.377Z,11.77
2023-01-11T21:52:46.943Z,12.48
2023-01-11T21:55:14.030Z,11.20
2023-01-11T21:57:40.607Z,12.23
2023-01-11T22:00:07.882Z,15.63
2023-01-11T22:02:38.766Z,14.57
2023-01-11T22:05:05.783Z,10.80
2023-01-11T22:07:33.100Z,11.20
2023-01-11T22:10:04.943Z,14.18
2023-01-11T22:12:33.272Z,12.32
2023-01-11T22:14:59.887Z,13.70
2023-01-11T22:17:26.444Z,11.50
2023-01-11T22:19:53.416Z,15.90
2023-01-11T22:22:20.015Z,15.50
2023-01-11T22:24:46.594Z,12.77
2023-01-11T22:27:13.164Z,12.95
2023-01-11T22:29:43.160Z,15.48
2023-01-11T22:32:09.712Z,11.20
2023-01-11T22:34:39.041Z,15.32
2023-01-11T22:37:06.335Z,13.05
2023-01-11T22:39:32.872Z,10.57
2023-01-11T22:41:59.437Z,14.50
2023-01-11T22:44:25.967Z,8.63
2023-01-11T22:46:52.462Z,14.38
2023-01-11T22:49:19.672Z,12.65
2023-01-11T22:51:46.451Z,13.90
2023-01-11T22:54:13.198Z,12.32
2023-01-11T22:56:40.223Z,17.67
2023-01-11T22:59:06.960Z,11.45
2023-01-11T23:01:38.071Z,18.27
2023-01-11T23:04:05.990Z,12.35
2023-01-11T23:06:34.809Z,12.52
2023-01-11T23:09:01.673Z,16.23
2023-01-11T23:11:49.342Z,12.57
2023-01-11T23:14:17.716Z,12.43
2023-01-11T23:16:45.049Z,12.25
2023-01-11T23:19:13.020Z,15.88
2023-01-11T23:21:40.705Z,17.40
2023-01-11T23:24:07.788Z,18.98
2023-01-11T23:26:34.649Z,11.88
2023-01-11T23:29:01.206Z,10.77
2023-01-11T23:31:29.381Z,11.00
2023-01-11T23:33:59.034Z,13.65
2023-01-11T23:36:30.800Z,13.93
2023-01-11T23:38:57.542Z,16.45
2023-01-11T23:41:43.402Z,12.15
2023-01-11T23:44:12.301Z,14.50
2023-01-11T23:46:58.246Z,16.27
2023-01-11T23:49:25.102Z,18.58
2023-01-11T23:51:52.236Z,13.63
2023-01-11T23:54:18.880Z,10.48
2023-01-11T23:56:45.490Z,14.52
2023-01-11T23:59:12.180Z,19.02
